createdAt,value
2022-09-23T04:30:55.324Z,0.00
2022-09-23T04:31:55.308Z,0.00
2022-09-23T04:32:55.264Z,0.00
2022-09-23T04:33:55.325Z,0.00
2022-09-23T04:34:55.235Z,0.00
2022-09-23T04:35:55.224Z,0.00
2022-09-23T04:36:55.224Z,0.00
2022-09-23T04:37:55.194Z,0.00
2022-09-23T04:38:55.223Z,0.00
2022-09-23T04:39:55.184Z,0.00
2022-09-23T04:40:55.221Z,0.00
2022-09-23T04:41:55.151Z,0.00
2022-09-23T04:42:55.134Z,0.00
2022-09-23T04:43:55.132Z,0.00
2022-09-23T04:44:55.112Z,0.00
2022-09-23T04:46:02.185Z,0.00
2022-09-23T04:46:55.128Z,0.00
2022-09-23T04:47:55.069Z,0.00
2022-09-23T04:48:55.066Z,4.00
2022-09-23T04:49:59.596Z,0.00
2022-09-23T04:50:55.026Z,0.00
2022-09-23T04:51:55.016Z,4.00
2022-09-23T04:52:55.026Z,4.00
2022-09-23T04:53:55.006Z,4.00
2022-09-23T04:54:54.986Z,4.00
2022-09-23T04:55:54.955Z,4.00
2022-09-23T04:56:54.957Z,8.00
2022-09-23T04:57:54.936Z,4.00
2022-09-23T04:58:54.934Z,8.00
2022-09-23T04:59:54.904Z,8.00
2022-09-23T05:00:54.936Z,12.00
2022-09-23T05:01:54.940Z,16.00
2022-09-23T05:02:54.863Z,16.00
2022-09-23T05:03:54.864Z,20.00
2022-09-23T05:04:54.853Z,24.00
2022-09-23T05:05:54.823Z,28.00
2022-09-23T05:06:55.176Z,32.00
2022-09-23T05:07:54.801Z,40.00
2022-09-23T05:08:54.792Z,40.00
2022-09-23T05:09:54.792Z,48.00
2022-09-23T05:10:54.763Z,56.00
2022-09-23T05:11:54.752Z,64.00
2022-09-23T05:12:57.227Z,72.00
2022-09-23T05:13:54.733Z,80.00
2022-09-23T05:14:54.721Z,92.00
2022-09-23T05:15:54.709Z,100.00
2022-09-23T05:16:54.681Z,108.00
2022-09-23T05:17:54.674Z,120.00
2022-09-23T05:18:54.694Z,128.00
2022-09-23T05:19:54.649Z,136.00
2022-09-23T05:20:54.645Z,148.00
2022-09-23T05:21:54.611Z,160.00
2022-09-23T05:22:54.611Z,168.00
2022-09-23T05:23:54.590Z,184.00
2022-09-23T05:24:54.599Z,200.00
2022-09-23T05:25:54.561Z,224.00
2022-09-23T05:26:54.630Z,240.00
2022-09-23T05:27:54.609Z,264.00
2022-09-23T05:28:54.521Z,284.00
2022-09-23T05:29:54.519Z,308.00
2022-09-23T05:30:54.499Z,332.00
2022-09-23T05:31:54.543Z,360.00
2022-09-23T05:32:54.469Z,388.00
2022-09-23T05:33:54.457Z,412.00
2022-09-23T05:34:54.459Z,444.00
2022-09-23T05:35:54.428Z,468.00
2022-09-23T05:36:54.421Z,500.00
2022-09-23T05:37:54.398Z,532.00
2022-09-23T05:38:54.398Z,564.00
2022-09-23T05:39:54.388Z,596.00
2022-09-23T05:40:54.377Z,628.00
2022-09-23T05:41:54.348Z,660.00
2022-09-23T05:42:54.338Z,692.00
2022-09-23T05:43:54.326Z,724.00
2022-09-23T05:44:54.327Z,756.00
2022-09-23T05:45:54.308Z,788.00
2022-09-23T05:46:54.351Z,820.00
2022-09-23T05:47:54.269Z,848.00
2022-09-23T05:48:55.423Z,884.00
2022-09-23T05:50:00.193Z,916.00
2022-09-23T05:50:55.236Z,952.00
2022-09-23T05:51:54.217Z,988.00
2022-09-23T05:52:54.208Z,1020.00
2022-09-23T05:53:54.186Z,1060.00
2022-09-23T05:54:54.195Z,1100.00
2022-09-23T05:55:54.238Z,1132.00
2022-09-23T05:56:54.155Z,1196.00
2022-09-23T05:57:54.143Z,1232.00
2022-09-23T05:58:54.134Z,1280.00
2022-09-23T05:59:54.204Z,1320.00
2022-09-23T06:00:54.104Z,1360.00
2022-09-23T06:01:56.440Z,1404.00
2022-09-23T06:02:54.138Z,1468.00
2022-09-23T06:03:54.102Z,1556.00
2022-09-23T06:04:54.064Z,1612.00
2022-09-23T06:05:54.032Z,1596.00
2022-09-23T06:06:54.056Z,1640.00
2022-09-23T06:07:54.003Z,1684.00
2022-09-23T06:08:54.001Z,1740.00
2022-09-23T06:09:54.032Z,1772.00
2022-09-23T06:10:54.675Z,1728.00
2022-09-23T06:11:53.960Z,1768.00
2022-09-23T06:12:53.947Z,1848.00
2022-09-23T06:13:53.976Z,1792.00
2022-09-23T06:14:53.925Z,1800.00
2022-09-23T06:15:53.979Z,1796.00
2022-09-23T06:16:53.895Z,1780.00
2022-09-23T06:17:53.872Z,1760.00
2022-09-23T06:18:53.870Z,1728.00
2022-09-23T06:19:53.891Z,1724.00
2022-09-23T06:20:53.851Z,1732.00
2022-09-23T06:21:53.841Z,1736.00
2022-09-23T06:22:55.479Z,1756.00
2022-09-23T06:24:03.812Z,1796.00
2022-09-23T06:24:54.788Z,1820.00
2022-09-23T06:25:53.800Z,1844.00
2022-09-23T06:26:53.777Z,1880.00
2022-09-23T06:27:53.748Z,1928.00
2022-09-23T06:28:53.741Z,1988.00
2022-09-23T06:29:53.723Z,2140.00
2022-09-23T06:30:53.765Z,2244.00
2022-09-23T06:31:53.732Z,2180.00
2022-09-23T06:32:53.690Z,2192.00
2022-09-23T06:34:02.638Z,2316.00
2022-09-23T06:34:54.660Z,2364.00
2022-09-23T06:35:59.252Z,2496.00
2022-09-23T06:36:54.641Z,2652.00
2022-09-23T06:37:53.619Z,2788.00
2022-09-23T06:38:53.609Z,2900.00
2022-09-23T06:39:53.588Z,3000.00
2022-09-23T06:40:53.661Z,3100.00
2022-09-23T06:41:53.558Z,3148.00
2022-09-23T06:42:53.548Z,3164.00
2022-09-23T06:43:53.538Z,3376.00
2022-09-23T06:44:53.538Z,3488.00
2022-09-23T06:45:53.538Z,3448.00
2022-09-23T06:46:53.551Z,3392.00
2022-09-23T06:47:53.486Z,3384.00
2022-09-23T06:48:53.497Z,3468.00
2022-09-23T06:49:53.455Z,3492.00
2022-09-23T06:50:53.457Z,3556.00
2022-09-23T06:51:53.426Z,3632.00
2022-09-23T06:52:53.419Z,3732.00
2022-09-23T06:53:53.405Z,3748.00
2022-09-23T06:54:53.397Z,3832.00
2022-09-23T06:55:53.406Z,3992.00
2022-09-23T06:56:53.395Z,3880.00
2022-09-23T06:57:53.356Z,4184.00
2022-09-23T06:58:53.355Z,4288.00
2022-09-23T06:59:53.325Z,4360.00
2022-09-23T07:00:53.363Z,4384.00
2022-09-23T07:01:53.432Z,4380.00
2022-09-23T07:02:53.319Z,4392.00
2022-09-23T07:03:53.274Z,4500.00
2022-09-23T07:04:53.265Z,4552.00
2022-09-23T07:05:53.255Z,4532.00
2022-09-23T07:06:53.244Z,4684.00
2022-09-23T07:07:53.214Z,4784.00
2022-09-23T07:08:53.214Z,4776.00
2022-09-23T07:09:53.225Z,4808.00
2022-09-23T07:10:53.203Z,4808.00
2022-09-23T07:11:53.175Z,4948.00
2022-09-23T07:12:53.153Z,4976.00
2022-09-23T07:13:53.143Z,5044.00
2022-09-23T07:14:53.134Z,5052.00
2022-09-23T07:15:53.158Z,5060.00
2022-09-23T07:16:53.124Z,5116.00
2022-09-23T07:17:53.092Z,5144.00
2022-09-23T07:18:53.084Z,5216.00
2022-09-23T07:19:53.088Z,5312.00
2022-09-23T07:20:53.072Z,5352.00
2022-09-23T07:21:53.053Z,5368.00
2022-09-23T07:22:53.153Z,5368.00
2022-09-23T07:23:53.014Z,5408.00
2022-09-23T07:24:53.003Z,5424.00
2022-09-23T07:25:52.985Z,5452.00
2022-09-23T07:26:52.995Z,5352.00
2022-09-23T07:27:52.962Z,5316.00
2022-09-23T07:28:52.942Z,5324.00
2022-09-23T07:29:52.931Z,5268.00
2022-09-23T07:31:00.071Z,5280.00
2022-09-23T07:31:58.660Z,5264.00
2022-09-23T07:32:53.947Z,5224.00
2022-09-23T07:33:52.881Z,5216.00
2022-09-23T07:34:52.862Z,5224.00
2022-09-23T07:35:52.851Z,5228.00
2022-09-23T07:36:52.852Z,4984.00
2022-09-23T07:37:52.824Z,5048.00
2022-09-23T07:38:52.812Z,5136.00
2022-09-23T07:39:52.798Z,5368.00
2022-09-23T07:40:52.896Z,5432.00
2022-09-23T07:41:52.812Z,5464.00
2022-09-23T07:42:52.772Z,5380.00
2022-09-23T07:43:52.741Z,5296.00
2022-09-23T07:44:52.731Z,5464.00
2022-09-23T07:45:52.851Z,5596.00
2022-09-23T07:46:52.762Z,5584.00
2022-09-23T07:47:52.692Z,5608.00
2022-09-23T07:48:52.680Z,5680.00
2022-09-23T07:49:52.669Z,5688.00
2022-09-23T07:50:52.649Z,5756.00
2022-09-23T07:51:52.650Z,5848.00
2022-09-23T07:52:52.621Z,5836.00
2022-09-23T07:53:52.609Z,6032.00
2022-09-23T07:54:52.601Z,6088.00
2022-09-23T07:55:52.589Z,6172.00
2022-09-23T07:56:52.586Z,6296.00
2022-09-23T07:57:52.560Z,6420.00
2022-09-23T07:58:52.568Z,6516.00
2022-09-23T07:59:52.618Z,6632.00
2022-09-23T08:00:52.519Z,6644.00
2022-09-23T08:01:52.731Z,6700.00
2022-09-23T08:02:53.199Z,6736.00
2022-09-23T08:03:52.501Z,6760.00
2022-09-23T08:04:52.459Z,6860.00
2022-09-23T08:05:52.459Z,6884.00
2022-09-23T08:06:52.460Z,6876.00
2022-09-23T08:07:52.439Z,6932.00
2022-09-23T08:09:00.048Z,7052.00
2022-09-23T08:09:53.400Z,7016.00
2022-09-23T08:10:52.388Z,6980.00
2022-09-23T08:11:52.388Z,6912.00
2022-09-23T08:12:52.358Z,6928.00
2022-09-23T08:13:52.348Z,6868.00
2022-09-23T08:14:52.329Z,6776.00
2022-09-23T08:15:55.507Z,6792.00
2022-09-23T08:16:52.393Z,6740.00
2022-09-23T08:17:52.297Z,6724.00
2022-09-23T08:18:52.316Z,6672.00
2022-09-23T08:19:52.271Z,6592.00
2022-09-23T08:20:52.357Z,6568.00
2022-09-23T08:21:52.277Z,6556.00
2022-09-23T08:22:52.225Z,6564.00
2022-09-23T08:23:52.217Z,6588.00
2022-09-23T08:24:53.609Z,6624.00
2022-09-23T08:25:52.195Z,6656.00
2022-09-23T08:26:52.187Z,6720.00
2022-09-23T08:27:52.167Z,6772.00
2022-09-23T08:28:52.146Z,6804.00
2022-09-23T08:29:52.136Z,6836.00
2022-09-23T08:30:52.223Z,6884.00
2022-09-23T08:31:52.127Z,6924.00
2022-09-23T08:32:52.086Z,6948.00
2022-09-23T08:33:52.087Z,6900.00
2022-09-23T08:34:52.068Z,6844.00
2022-09-23T08:35:52.222Z,6812.00
2022-09-23T08:36:52.046Z,6776.00
2022-09-23T08:37:52.057Z,6744.00
2022-09-23T08:38:52.016Z,6696.00
2022-09-23T08:39:52.005Z,6648.00
2022-09-23T08:40:51.986Z,6572.00
2022-09-23T08:41:56.103Z,6520.00
2022-09-23T08:42:52.963Z,6412.00
2022-09-23T08:43:51.946Z,6296.00
2022-09-23T08:44:51.937Z,6200.00
2022-09-23T08:45:51.988Z,6088.00
2022-09-23T08:46:51.936Z,5972.00
2022-09-23T08:47:51.898Z,5840.00
2022-09-23T08:48:51.917Z,5740.00
2022-09-23T08:49:51.874Z,5672.00
2022-09-23T08:50:51.866Z,5644.00
2022-09-23T08:51:51.856Z,5604.00
2022-09-23T08:52:51.845Z,5576.00
2022-09-23T08:53:51.825Z,5568.00
2022-09-23T08:54:55.326Z,5556.00
2022-09-23T08:55:51.796Z,5564.00
2022-09-23T08:56:51.796Z,5580.00
2022-09-23T08:58:14.071Z,5596.00
2022-09-23T08:58:52.756Z,5624.00
2022-09-23T08:59:51.746Z,5664.00
2022-09-23T09:00:51.758Z,5708.00
2022-09-23T09:01:51.781Z,5760.00
2022-09-23T09:02:51.734Z,5832.00
2022-09-23T09:03:51.685Z,5908.00
2022-09-23T09:04:51.684Z,5992.00
2022-09-23T09:05:54.387Z,6088.00
2022-09-23T09:06:54.142Z,6208.00
2022-09-23T09:07:51.633Z,6348.00
2022-09-23T09:08:51.634Z,6488.00
2022-09-23T09:09:51.608Z,6636.00
2022-09-23T09:10:51.605Z,6784.00
2022-09-23T09:11:51.575Z,6928.00
2022-09-23T09:12:51.566Z,7064.00
2022-09-23T09:13:51.552Z,7196.00
2022-09-23T09:14:51.535Z,7316.00
2022-09-23T09:15:51.577Z,7440.00
2022-09-23T09:17:00.364Z,7552.00
2022-09-23T09:17:52.494Z,7644.00
2022-09-23T09:18:51.491Z,7720.00
2022-09-23T09:19:51.464Z,7796.00
2022-09-23T09:20:51.476Z,7840.00
2022-09-23T09:21:51.443Z,7896.00
2022-09-23T09:22:51.435Z,7980.00
2022-09-23T09:23:51.433Z,8052.00
2022-09-23T09:24:51.417Z,8124.00
2022-09-23T09:25:51.385Z,8224.00
2022-09-23T09:26:51.394Z,8332.00
2022-09-23T09:27:51.363Z,8416.00
2022-09-23T09:28:51.354Z,8492.00
2022-09-23T09:29:51.334Z,8648.00
2022-09-23T09:30:51.455Z,8824.00
2022-09-23T09:31:51.316Z,9012.00
2022-09-23T09:32:51.295Z,9176.00
2022-09-23T09:33:51.282Z,9332.00
2022-09-23T09:34:51.274Z,9540.00
2022-09-23T09:35:51.255Z,9720.00
2022-09-23T09:36:51.276Z,9936.00
2022-09-23T09:37:53.451Z,10044.00
2022-09-23T09:38:51.232Z,10176.00
2022-09-23T09:39:51.195Z,10384.00
2022-09-23T09:40:51.228Z,10384.00
2022-09-23T09:41:51.224Z,10416.00
2022-09-23T09:42:51.165Z,10436.00
2022-09-23T09:43:51.153Z,10416.00
2022-09-23T09:44:51.141Z,10388.00
2022-09-23T09:45:55.227Z,10324.00
2022-09-23T09:46:52.179Z,10224.00
2022-09-23T09:47:51.093Z,10164.00
2022-09-23T09:48:51.084Z,10076.00
2022-09-23T09:49:51.079Z,9952.00
2022-09-23T09:50:51.075Z,9816.00
2022-09-23T09:51:51.054Z,9784.00
2022-09-23T09:52:50.983Z,9724.00
2022-09-23T09:53:50.961Z,9664.00
2022-09-23T09:54:50.961Z,9736.00
2022-09-23T09:55:50.939Z,9844.00
2022-09-23T09:56:50.941Z,10044.00
2022-09-23T09:57:50.909Z,10220.00
2022-09-23T09:58:50.907Z,10320.00
2022-09-23T09:59:50.879Z,10352.00
2022-09-23T10:00:50.879Z,10372.00
2022-09-23T10:01:50.929Z,10384.00
2022-09-23T10:02:50.847Z,10360.00
2022-09-23T10:03:53.046Z,10320.00
2022-09-23T10:04:51.841Z,10388.00
2022-09-23T10:05:50.796Z,10448.00
2022-09-23T10:06:50.816Z,10568.00
2022-09-23T10:07:50.785Z,10664.00
2022-09-23T10:08:50.776Z,10708.00
2022-09-23T10:09:50.748Z,10792.00
2022-09-23T10:10:50.756Z,10788.00
2022-09-23T10:11:50.736Z,10776.00
2022-09-23T10:12:50.714Z,10764.00
2022-09-23T10:13:50.695Z,10652.00
2022-09-23T10:14:50.683Z,10576.00
2022-09-23T10:15:50.664Z,10508.00
2022-09-23T10:16:50.694Z,10380.00
2022-09-23T10:17:50.643Z,10196.00
2022-09-23T10:18:50.631Z,10036.00
2022-09-23T10:19:50.612Z,9764.00
2022-09-23T10:20:50.606Z,9496.00
2022-09-23T10:21:50.603Z,9316.00
2022-09-23T10:22:50.583Z,9220.00
2022-09-23T10:23:50.560Z,9004.00
2022-09-23T10:24:50.553Z,8788.00
2022-09-23T10:25:50.533Z,8572.00
2022-09-23T10:26:50.557Z,8320.00
2022-09-23T10:27:50.503Z,8036.00
2022-09-23T10:28:50.503Z,7844.00
2022-09-23T10:29:50.480Z,7680.00
2022-09-23T10:30:50.522Z,7580.00
2022-09-23T10:31:50.474Z,7516.00
2022-09-23T10:32:50.445Z,7520.00
2022-09-23T10:33:50.428Z,7580.00
2022-09-23T10:34:50.414Z,7724.00
2022-09-23T10:35:50.405Z,7860.00
2022-09-23T10:36:50.394Z,7972.00
2022-09-23T10:37:50.388Z,8124.00
2022-09-23T10:38:50.367Z,8260.00
2022-09-23T10:39:50.346Z,8484.00
2022-09-23T10:40:50.518Z,8532.00
2022-09-23T10:41:50.326Z,8532.00
2022-09-23T10:42:50.336Z,8576.00
2022-09-23T10:43:50.299Z,8664.00
2022-09-23T10:44:50.303Z,8800.00
2022-09-23T10:45:50.294Z,8892.00
2022-09-23T10:46:57.351Z,9060.00
2022-09-23T10:47:50.263Z,8924.00
2022-09-23T10:48:50.241Z,8844.00
2022-09-23T10:49:50.223Z,8784.00
2022-09-23T10:50:50.212Z,8936.00
2022-09-23T10:51:50.203Z,9016.00
2022-09-23T10:52:50.204Z,8948.00
2022-09-23T10:53:50.174Z,9052.00
2022-09-23T10:54:50.173Z,8820.00
2022-09-23T10:55:50.145Z,8640.00
2022-09-23T10:56:50.134Z,8544.00
2022-09-23T10:57:50.137Z,8488.00
2022-09-23T10:58:50.106Z,8520.00
2022-09-23T10:59:50.098Z,8568.00
2022-09-23T11:00:50.081Z,8668.00
2022-09-23T11:01:50.101Z,8884.00
2022-09-23T11:02:50.069Z,9072.00
2022-09-23T11:03:50.048Z,9332.00
2022-09-23T11:04:50.065Z,9572.00
2022-09-23T11:05:50.022Z,9644.00
2022-09-23T11:06:50.000Z,9776.00
2022-09-23T11:07:50.009Z,10276.00
2022-09-23T11:08:49.971Z,10616.00
2022-09-23T11:09:49.972Z,10764.00
2022-09-23T11:10:49.951Z,10756.00
2022-09-23T11:11:49.941Z,11088.00
2022-09-23T11:12:49.932Z,11124.00
2022-09-23T11:13:54.090Z,11092.00
2022-09-23T11:14:49.958Z,11048.00
2022-09-23T11:15:49.903Z,11368.00
2022-09-23T11:16:49.901Z,11488.00
2022-09-23T11:17:49.883Z,11660.00
2022-09-23T11:18:49.845Z,11620.00
2022-09-23T11:19:49.835Z,11696.00
2022-09-23T11:20:49.818Z,11860.00
2022-09-23T11:21:49.818Z,12148.00
2022-09-23T11:22:49.810Z,12588.00
2022-09-23T11:23:49.787Z,13052.00
2022-09-23T11:24:49.767Z,14100.00
2022-09-23T11:25:49.766Z,15264.00
2022-09-23T11:26:49.747Z,17664.00
2022-09-23T11:27:49.749Z,18688.00
2022-09-23T11:28:49.727Z,21504.00
2022-09-23T11:29:49.708Z,20640.00
2022-09-23T11:30:49.803Z,22496.00
2022-09-23T11:31:49.679Z,24384.00
2022-09-23T11:32:49.721Z,26688.00
2022-09-23T11:33:49.660Z,27808.00
2022-09-23T11:34:52.623Z,27840.00
2022-09-23T11:35:50.639Z,30784.00
2022-09-23T11:36:49.620Z,34272.00
2022-09-23T11:37:49.621Z,37664.00
2022-09-23T11:38:49.653Z,39264.00
2022-09-23T11:39:49.584Z,42560.00
2022-09-23T11:40:49.648Z,44864.00
2022-09-23T11:41:49.552Z,50048.00
2022-09-23T11:42:49.553Z,50240.00
2022-09-23T11:43:49.522Z,49856.00
2022-09-23T11:44:49.512Z,50304.00
2022-09-23T11:45:49.547Z,53536.00
2022-09-23T11:46:49.483Z,50432.00
2022-09-23T11:47:49.492Z,50592.00
2022-09-23T11:48:49.454Z,47328.00
2022-09-23T11:49:49.453Z,32928.00
2022-09-23T11:50:49.434Z,24608.00
2022-09-23T11:51:49.440Z,27392.00
2022-09-23T11:52:49.433Z,25504.00
2022-09-23T11:53:49.407Z,20448.00
2022-09-23T11:54:49.376Z,20640.00
2022-09-23T11:55:57.179Z,18240.00
2022-09-23T11:56:50.364Z,18624.00
2022-09-23T11:57:49.739Z,16352.00
2022-09-23T11:58:53.187Z,15520.00
2022-09-23T11:59:50.321Z,15968.00
2022-09-23T12:00:54.589Z,19520.00
2022-09-23T12:01:50.490Z,20832.00
2022-09-23T12:02:59.168Z,19296.00
2022-09-23T12:03:50.383Z,17184.00
2022-09-23T12:04:56.713Z,14944.00
2022-09-23T12:05:50.303Z,14672.00
2022-09-23T12:06:49.367Z,13640.00
2022-09-23T12:07:49.228Z,13064.00
2022-09-23T12:08:49.207Z,12892.00
2022-09-23T12:09:58.113Z,12936.00
2022-09-23T12:10:50.169Z,12552.00
2022-09-23T12:11:49.169Z,12264.00
2022-09-23T12:12:49.159Z,12420.00
2022-09-23T12:13:49.141Z,13304.00
2022-09-23T12:14:49.121Z,15168.00
2022-09-23T12:15:49.111Z,15872.00
2022-09-23T12:16:49.185Z,15584.00
2022-09-23T12:17:49.101Z,14324.00
2022-09-23T12:18:49.072Z,13388.00
2022-09-23T12:19:49.060Z,11572.00
2022-09-23T12:20:49.046Z,10468.00
2022-09-23T12:21:51.286Z,9844.00
2022-09-23T12:22:49.035Z,9448.00
2022-09-23T12:23:49.012Z,8804.00
2022-09-23T12:24:48.991Z,8244.00
2022-09-23T12:25:48.990Z,7820.00
2022-09-23T12:26:48.970Z,7544.00
2022-09-23T12:27:48.992Z,7312.00
2022-09-23T12:28:48.941Z,7152.00
2022-09-23T12:29:48.932Z,7060.00
2022-09-23T12:30:48.965Z,7032.00
2022-09-23T12:31:48.903Z,7060.00
2022-09-23T12:32:48.903Z,7096.00
2022-09-23T12:33:48.883Z,7172.00
2022-09-23T12:34:48.925Z,7444.00
2022-09-23T12:35:48.852Z,7280.00
2022-09-23T12:36:48.844Z,7360.00
2022-09-23T12:37:48.844Z,7496.00
2022-09-23T12:38:48.805Z,7684.00
2022-09-23T12:39:48.794Z,8076.00
2022-09-23T12:40:48.841Z,8272.00
2022-09-23T12:41:48.780Z,9680.00
2022-09-23T12:42:48.775Z,9916.00
2022-09-23T12:43:48.756Z,9952.00
2022-09-23T12:44:48.725Z,10332.00
2022-09-23T12:45:49.194Z,10016.00
2022-09-23T12:46:48.695Z,10008.00
2022-09-23T12:47:48.696Z,9052.00
2022-09-23T12:48:48.688Z,8324.00
2022-09-23T12:49:48.678Z,7816.00
2022-09-23T12:50:48.646Z,7580.00
2022-09-23T12:51:48.636Z,7312.00
2022-09-23T12:52:48.626Z,7288.00
2022-09-23T12:53:48.618Z,7448.00
2022-09-23T12:54:48.596Z,7472.00
2022-09-23T12:55:48.587Z,7716.00
2022-09-23T12:56:48.575Z,8196.00
2022-09-23T12:57:48.556Z,8904.00
2022-09-23T12:58:48.559Z,9044.00
2022-09-23T12:59:48.535Z,8548.00
2022-09-23T13:00:48.581Z,8748.00
2022-09-23T13:01:48.733Z,9832.00
2022-09-23T13:02:48.497Z,10520.00
2022-09-23T13:03:48.488Z,10028.00
2022-09-23T13:04:48.467Z,9812.00
2022-09-23T13:05:48.466Z,8884.00
2022-09-23T13:06:48.446Z,8300.00
2022-09-23T13:07:48.428Z,8140.00
2022-09-23T13:08:48.429Z,8044.00
2022-09-23T13:09:48.398Z,8028.00
2022-09-23T13:10:48.409Z,7988.00
2022-09-23T13:11:48.368Z,8040.00
2022-09-23T13:12:48.377Z,8128.00
2022-09-23T13:13:48.399Z,8304.00
2022-09-23T13:14:48.340Z,9128.00
2022-09-23T13:15:48.328Z,9396.00
2022-09-23T13:16:48.385Z,9532.00
2022-09-23T13:17:48.298Z,8792.00
2022-09-23T13:18:48.344Z,9076.00
2022-09-23T13:19:48.270Z,9320.00
2022-09-23T13:20:48.268Z,9184.00
2022-09-23T13:21:48.239Z,8768.00
2022-09-23T13:22:48.240Z,8284.00
2022-09-23T13:23:48.239Z,8100.00
2022-09-23T13:24:48.209Z,7756.00
2022-09-23T13:25:48.211Z,7692.00
2022-09-23T13:26:48.264Z,7684.00
2022-09-23T13:27:48.170Z,7368.00
2022-09-23T13:28:48.161Z,7320.00
2022-09-23T13:29:48.151Z,7432.00
2022-09-23T13:30:48.138Z,7456.00
2022-09-23T13:31:48.147Z,7496.00
2022-09-23T13:32:48.122Z,7548.00
2022-09-23T13:33:48.094Z,7640.00
2022-09-23T13:34:48.090Z,7920.00
2022-09-23T13:35:48.061Z,8524.00
2022-09-23T13:36:48.067Z,9048.00
2022-09-23T13:37:48.031Z,12132.00
2022-09-23T13:38:48.032Z,11400.00
2022-09-23T13:39:48.021Z,12224.00
2022-09-23T13:40:48.049Z,13504.00
2022-09-23T13:41:47.985Z,13492.00
2022-09-23T13:42:47.971Z,15616.00
2022-09-23T13:43:47.960Z,14732.00
2022-09-23T13:44:47.950Z,12520.00
2022-09-23T13:45:47.944Z,10792.00
2022-09-23T13:46:47.920Z,9768.00
2022-09-23T13:47:47.900Z,9104.00
2022-09-23T13:48:47.882Z,9468.00
2022-09-23T13:49:47.911Z,9468.00
2022-09-23T13:50:47.860Z,10848.00
2022-09-23T13:51:47.852Z,9932.00
2022-09-23T13:52:47.831Z,9828.00
2022-09-23T13:53:47.831Z,8752.00
2022-09-23T13:54:47.812Z,7576.00
2022-09-23T13:55:52.257Z,6912.00
2022-09-23T13:56:47.861Z,6476.00
2022-09-23T13:57:47.773Z,6100.00
2022-09-23T13:58:47.766Z,5720.00
2022-09-23T13:59:47.743Z,5340.00
2022-09-23T14:00:47.753Z,5048.00
2022-09-23T14:01:47.763Z,4868.00
2022-09-23T14:02:47.789Z,4776.00
2022-09-23T14:03:47.709Z,4756.00
2022-09-23T14:04:47.674Z,4796.00
2022-09-23T14:05:47.664Z,4936.00
2022-09-23T14:06:47.645Z,5168.00
2022-09-23T14:07:47.645Z,5476.00
2022-09-23T14:08:47.625Z,5904.00
2022-09-23T14:09:47.624Z,6788.00
2022-09-23T14:10:47.596Z,6376.00
2022-09-23T14:11:47.594Z,6272.00
2022-09-23T14:12:47.575Z,6180.00
2022-09-23T14:13:47.578Z,6008.00
2022-09-23T14:14:47.557Z,5784.00
2022-09-23T14:15:47.547Z,5604.00
2022-09-23T14:16:47.588Z,5492.00
2022-09-23T14:17:47.507Z,5456.00
2022-09-23T14:18:47.499Z,5416.00
2022-09-23T14:19:47.507Z,5332.00
2022-09-23T14:20:47.476Z,5292.00
2022-09-23T14:21:47.468Z,5256.00
2022-09-23T14:22:47.448Z,5140.00
2022-09-23T14:23:47.438Z,4980.00
2022-09-23T14:24:47.428Z,4840.00
2022-09-23T14:25:47.437Z,4696.00
2022-09-23T14:26:47.396Z,4576.00
2022-09-23T14:27:47.389Z,4492.00
2022-09-23T14:28:47.378Z,4416.00
2022-09-23T14:29:47.379Z,4360.00
2022-09-23T14:30:47.341Z,4356.00
2022-09-23T14:31:47.451Z,4408.00
2022-09-23T14:32:47.316Z,4512.00
2022-09-23T14:33:47.319Z,4668.00
2022-09-23T14:34:47.372Z,4868.00
2022-09-23T14:35:47.283Z,5088.00
2022-09-23T14:36:47.259Z,5360.00
2022-09-23T14:37:47.258Z,5736.00
2022-09-23T14:38:47.230Z,6116.00
2022-09-23T14:39:47.253Z,6344.00
2022-09-23T14:40:47.260Z,6448.00
2022-09-23T14:41:47.200Z,6400.00
2022-09-23T14:42:47.180Z,6220.00
2022-09-23T14:43:47.252Z,6008.00
2022-09-23T14:44:47.220Z,5788.00
2022-09-23T14:45:47.195Z,5544.00
2022-09-23T14:46:47.132Z,5284.00
2022-09-23T14:47:47.131Z,5096.00
2022-09-23T14:48:47.110Z,5104.00
2022-09-23T14:49:47.122Z,5304.00
2022-09-23T14:50:47.092Z,5640.00
2022-09-23T14:51:47.071Z,6196.00
2022-09-23T14:52:47.052Z,6604.00
2022-09-23T14:53:47.040Z,6592.00
2022-09-23T14:54:47.100Z,6788.00
2022-09-23T14:55:47.014Z,6816.00
2022-09-23T14:56:47.000Z,6832.00
2022-09-23T14:57:46.994Z,6832.00
2022-09-23T14:58:51.705Z,6828.00
2022-09-23T14:59:47.972Z,6796.00
2022-09-23T15:00:47.006Z,6804.00
2022-09-23T15:01:46.933Z,6812.00
2022-09-23T15:02:46.926Z,6948.00
2022-09-23T15:03:46.934Z,6776.00
2022-09-23T15:04:46.979Z,6488.00
2022-09-23T15:05:46.887Z,6320.00
2022-09-23T15:06:46.869Z,6200.00
2022-09-23T15:07:46.856Z,6000.00
2022-09-23T15:08:46.842Z,5696.00
2022-09-23T15:09:46.852Z,5348.00
2022-09-23T15:10:46.815Z,4980.00
2022-09-23T15:11:46.804Z,4632.00
2022-09-23T15:12:46.806Z,4364.00
2022-09-23T15:13:46.777Z,4168.00
2022-09-23T15:14:46.844Z,4012.00
2022-09-23T15:15:46.755Z,3856.00
2022-09-23T15:16:46.777Z,3668.00
2022-09-23T15:17:46.784Z,3492.00
2022-09-23T15:18:46.703Z,3368.00
2022-09-23T15:19:46.723Z,3280.00
2022-09-23T15:20:46.694Z,3204.00
2022-09-23T15:21:46.674Z,3136.00
2022-09-23T15:22:46.665Z,3100.00
2022-09-23T15:23:46.650Z,3068.00
2022-09-23T15:24:46.750Z,3040.00
2022-09-23T15:25:46.643Z,3024.00
2022-09-23T15:26:46.605Z,2992.00
2022-09-23T15:27:46.596Z,2924.00
2022-09-23T15:28:46.576Z,2840.00
2022-09-23T15:29:46.566Z,2736.00
2022-09-23T15:30:46.564Z,2624.00
2022-09-23T15:31:46.583Z,2516.00
2022-09-23T15:32:46.558Z,2432.00
2022-09-23T15:33:46.517Z,2384.00
2022-09-23T15:34:46.500Z,2352.00
2022-09-23T15:35:46.515Z,2328.00
2022-09-23T15:36:46.475Z,2296.00
2022-09-23T15:37:46.466Z,2260.00
2022-09-23T15:38:46.445Z,2204.00
2022-09-23T15:39:46.450Z,2132.00
2022-09-23T15:40:46.454Z,2056.00
2022-09-23T15:41:46.446Z,1980.00
2022-09-23T15:42:46.406Z,1896.00
2022-09-23T15:43:46.377Z,1816.00
2022-09-23T15:44:46.367Z,1736.00
2022-09-23T15:45:46.427Z,1672.00
2022-09-23T15:46:46.337Z,1612.00
2022-09-23T15:47:46.338Z,1560.00
2022-09-23T15:48:46.307Z,1524.00
2022-09-23T15:49:46.311Z,1492.00
2022-09-23T15:50:46.299Z,1472.00
2022-09-23T15:51:46.287Z,1464.00
2022-09-23T15:52:46.267Z,1468.00
2022-09-23T15:53:46.258Z,1476.00
2022-09-23T15:54:46.255Z,1484.00
2022-09-23T15:55:46.239Z,1488.00
2022-09-23T15:56:46.229Z,1480.00
2022-09-23T15:57:46.223Z,1460.00
2022-09-23T15:58:46.190Z,1432.00
2022-09-23T15:59:46.177Z,1396.00
2022-09-23T16:00:46.192Z,1356.00
2022-09-23T16:01:46.213Z,1312.00
2022-09-23T16:02:46.198Z,1264.00
2022-09-23T16:03:46.120Z,1224.00
2022-09-23T16:04:46.249Z,1184.00
2022-09-23T16:05:46.129Z,1144.00
2022-09-23T16:06:46.088Z,1116.00
2022-09-23T16:07:46.131Z,1108.00
2022-09-23T16:08:46.048Z,1104.00
2022-09-23T16:09:46.048Z,1092.00
2022-09-23T16:10:46.020Z,1080.00
2022-09-23T16:11:46.018Z,1052.00
2022-09-23T16:12:45.998Z,1024.00
2022-09-23T16:13:45.989Z,1000.00
2022-09-23T16:14:46.129Z,980.00
2022-09-23T16:15:45.958Z,964.00
2022-09-23T16:16:46.008Z,952.00
2022-09-23T16:17:45.942Z,936.00
2022-09-23T16:18:45.921Z,908.00
2022-09-23T16:19:45.914Z,872.00
2022-09-23T16:20:45.898Z,840.00
2022-09-23T16:21:45.887Z,812.00
2022-09-23T16:22:45.859Z,784.00
2022-09-23T16:23:45.901Z,768.00
2022-09-23T16:24:45.857Z,748.00
2022-09-23T16:25:45.827Z,736.00
2022-09-23T16:26:45.809Z,720.00
2022-09-23T16:27:45.810Z,708.00
2022-09-23T16:28:45.788Z,692.00
2022-09-23T16:29:45.779Z,668.00
2022-09-23T16:30:45.770Z,644.00
2022-09-23T16:31:45.961Z,616.00
2022-09-23T16:32:45.806Z,580.00
2022-09-23T16:33:45.719Z,548.00
2022-09-23T16:34:45.721Z,520.00
2022-09-23T16:35:45.699Z,496.00
2022-09-23T16:36:45.678Z,476.00
2022-09-23T16:37:45.670Z,456.00